sensor_id;sensor_type;location;lat;lon;timestamp;temperature;humidity
1468;DHT22;727;48.892;9.544;2024-02-14T00:01:20;2.10;99.90
1468;DHT22;727;48.892;9.544;2024-02-14T00:03:47;2.00;99.90
1468;DHT22;727;48.892;9.544;2024-02-14T00:06:14;2.00;99.90
1468;DHT22;727;48.892;9.544;2024-02-14T00:08:40;2.00;99.90
1468;DHT22;727;48.892;9.544;2024-02-14T00:11:07;2.00;99.90
1468;DHT22;727;48.892;9.544;2024-02-14T00:13:34;1.90;99.90
1468;DHT22;727;48.892;9.544;2024-02-14T00:16:02;1.90;99.90
1468;DHT22;727;48.892;9.544;2024-02-14T00:18:29;1.90;99.90
1468;DHT22;727;48.892;9.544;2024-02-14T00:20:56;1.90;99.90
1468;DHT22;727;48.892;9.544;2024-02-14T00:23:22;1.90;99.90
1468;DHT22;727;48.892;9.544;2024-02-14T00:25:49;1.80;99.90
1468;DHT22;727;48.892;9.544;2024-02-14T00:28:16;1.90;99.90
1468;DHT22;727;48.892;9.544;2024-02-14T00:30:43;1.90;99.90
1468;DHT22;727;48.892;9.544;2024-02-14T00:33:11;1.90;99.90
1468;DHT22;727;48.892;9.544;2024-02-14T00:35:37;1.90;99.90
1468;DHT22;727;48.892;9.544;2024-02-14T00:38:04;1.90;99.90
1468;DHT22;727;48.892;9.544;2024-02-14T00:40:31;2.00;99.90
1468;DHT22;727;48.892;9.544;2024-02-14T00:42:57;2.00;99.90
1468;DHT22;727;48.892;9.544;2024-02-14T00:45:24;2.10;99.90
1468;DHT22;727;48.892;9.544;2024-02-14T00:47:51;2.10;99.90
1468;DHT22;727;48.892;9.544;2024-02-14T00:50:19;2.10;99.90
1468;DHT22;727;48.892;9.544;2024-02-14T00:52:46;2.10;99.90
1468;DHT22;727;48.892;9.544;2024-02-14T00:55:12;2.10;99.90
1468;DHT22;727;48.892;9.544;2024-02-14T00:57:39;2.10;99.90
1468;DHT22;727;48.892;9.544;2024-02-14T01:00:07;2.10;99.90
1468;DHT22;727;48.892;9.544;2024-02-14T01:02:35;2.10;99.90
1468;DHT22;727;48.892;9.544;2024-02-14T01:05:02;2.10;99.90
1468;DHT22;727;48.892;9.544;2024-02-14T01:07:31;2.10;99.90
1468;DHT22;727;48.892;9.544;2024-02-14T01:09:57;2.20;99.90
1468;DHT22;727;48.892;9.544;2024-02-14T01:12:24;2.20;99.90
1468;DHT22;727;48.892;9.544;2024-02-14T01:14:51;2.30;99.90
1468;DHT22;727;48.892;9.544;2024-02-14T01:17:18;2.30;99.90
1468;DHT22;727;48.892;9.544;2024-02-14T01:19:44;2.40;99.90
1468;DHT22;727;48.892;9.544;2024-02-14T01:22:11;2.40;99.90
1468;DHT22;727;48.892;9.544;2024-02-14T01:24:43;2.50;99.90
1468;DHT22;727;48.892;9.544;2024-02-14T01:27:10;2.60;99.90
1468;DHT22;727;48.892;9.544;2024-02-14T01:29:37;2.60;99.90
1468;DHT22;727;48.892;9.544;2024-02-14T01:32:04;2.70;99.90
1468;DHT22;727;48.892;9.544;2024-02-14T01:34:32;2.70;99.90
1468;DHT22;727;48.892;9.544;2024-02-14T01:36:59;2.70;99.90
1468;DHT22;727;48.892;9.544;2024-02-14T01:39:25;2.80;99.90
1468;DHT22;727;48.892;9.544;2024-02-14T01:41:53;2.80;99.90
1468;DHT22;727;48.892;9.544;2024-02-14T01:44:20;2.80;99.90
1468;DHT22;727;48.892;9.544;2024-02-14T01:46:47;2.90;99.90
1468;DHT22;727;48.892;9.544;2024-02-14T01:49:15;3.00;99.90
1468;DHT22;727;48.892;9.544;2024-02-14T01:51:44;3.10;99.90
1468;DHT22;727;48.892;9.544;2024-02-14T01:54:12;3.10;99.90
1468;DHT22;727;48.892;9.544;2024-02-14T01:56:42;3.10;99.90
1468;DHT22;727;48.892;9.544;2024-02-14T01:59:11;3.10;99.90
1468;DHT22;727;48.892;9.544;2024-02-14T02:01:37;3.10;99.90
1468;DHT22;727;48.892;9.544;2024-02-14T02:04:04;3.00;99.90
1468;DHT22;727;48.892;9.544;2024-02-14T02:06:32;3.00;99.90
1468;DHT22;727;48.892;9.544;2024-02-14T02:08:59;3.00;99.90
1468;DHT22;727;48.892;9.544;2024-02-14T02:11:26;3.00;99.90
1468;DHT22;727;48.892;9.544;2024-02-14T02:13:53;3.00;99.90
1468;DHT22;727;48.892;9.544;2024-02-14T02:16:22;3.00;99.90
1468;DHT22;727;48.892;9.544;2024-02-14T02:18:49;3.00;99.90
1468;DHT22;727;48.892;9.544;2024-02-14T02:21:15;3.00;99.90
1468;DHT22;727;48.892;9.544;2024-02-14T02:23:46;3.00;99.90
1468;DHT22;727;48.892;9.544;2024-02-14T02:26:13;3.00;99.90
1468;DHT22;727;48.892;9.544;2024-02-14T02:28:39;3.10;99.90
1468;DHT22;727;48.892;9.544;2024-02-14T02:31:08;3.10;99.90
1468;DHT22;727;48.892;9.544;2024-02-14T02:33:35;3.10;99.90
1468;DHT22;727;48.892;9.544;2024-02-14T02:36:03;3.20;99.90
1468;DHT22;727;48.892;9.544;2024-02-14T02:38:29;3.10;99.90
1468;DHT22;727;48.892;9.544;2024-02-14T02:40:57;3.20;99.90
1468;DHT22;727;48.892;9.544;2024-02-14T02:43:26;3.30;99.90
1468;DHT22;727;48.892;9.544;2024-02-14T02:45:52;3.30;99.90
1468;DHT22;727;48.892;9.544;2024-02-14T02:48:19;3.50;99.90
1468;DHT22;727;48.892;9.544;2024-02-14T02:50:48;3.50;99.90
1468;DHT22;727;48.892;9.544;2024-02-14T02:53:16;3.40;99.90
1468;DHT22;727;48.892;9.544;2024-02-14T02:55:43;3.40;99.90
1468;DHT22;727;48.892;9.544;2024-02-14T02:58:11;3.40;99.90
1468;DHT22;727;48.892;9.544;2024-02-14T03:00:38;3.40;99.90
1468;DHT22;727;48.892;9.544;2024-02-14T03:03:07;3.50;99.90
1468;DHT22;727;48.892;9.544;2024-02-14T03:05:34;3.50;99.90
1468;DHT22;727;48.892;9.544;2024-02-14T03:08:01;3.60;99.90
1468;DHT22;727;48.892;9.544;2024-02-14T03:10:28;3.60;99.90
1468;DHT22;727;48.892;9.544;2024-02-14T03:12:55;3.60;99.90
1468;DHT22;727;48.892;9.544;2024-02-14T03:15:23;3.60;99.90
1468;DHT22;727;48.892;9.544;2024-02-14T03:17:51;3.60;99.90
1468;DHT22;727;48.892;9.544;2024-02-14T03:20:18;3.60;99.90
1468;DHT22;727;48.892;9.544;2024-02-14T03:22:45;3.60;99.90
1468;DHT22;727;48.892;9.544;2024-02-14T03:25:13;3.60;99.90
1468;DHT22;727;48.892;9.544;2024-02-14T03:27:40;3.50;99.90
1468;DHT22;727;48.892;9.544;2024-02-14T03:30:07;3.50;99.90
1468;DHT22;727;48.892;9.544;2024-02-14T03:32:36;3.50;99.90
1468;DHT22;727;48.892;9.544;2024-02-14T03:35:03;3.50;99.90
1468;DHT22;727;48.892;9.544;2024-02-14T03:37:30;3.40;99.90
1468;DHT22;727;48.892;9.544;2024-02-14T03:39:57;3.40;99.90
1468;DHT22;727;48.892;9.544;2024-02-14T03:42:23;3.40;99.90
1468;DHT22;727;48.892;9.544;2024-02-14T03:44:51;3.40;99.90
1468;DHT22;727;48.892;9.544;2024-02-14T03:47:18;3.40;99.90
1468;DHT22;727;48.892;9.544;2024-02-14T03:49:46;3.40;99.90
1468;DHT22;727;48.892;9.544;2024-02-14T03:52:13;3.40;99.90
1468;DHT22;727;48.892;9.544;2024-02-14T03:54:40;3.40;99.90
1468;DHT22;727;48.892;9.544;2024-02-14T03:57:06;3.30;99.90
1468;DHT22;727;48.892;9.544;2024-02-14T03:59:36;3.30;99.90
1468;DHT22;727;48.892;9.544;2024-02-14T04:02:04;3.30;99.90
1468;DHT22;727;48.892;9.544;2024-02-14T04:04:32;3.30;99.90
1468;DHT22;727;48.892;9.544;2024-02-14T04:07:01;3.30;99.90
1468;DHT22;727;48.892;9.544;2024-02-14T04:09:28;3.30;99.90
1468;DHT22;727;48.892;9.544;2024-02-14T04:11:54;3.30;99.90
1468;DHT22;727;48.892;9.544;2024-02-14T04:14:21;3.30;99.90
1468;DHT22;727;48.892;9.544;2024-02-14T04:16:48;3.30;99.90
1468;DHT22;727;48.892;9.544;2024-02-14T04:19:14;3.40;99.90
1468;DHT22;727;48.892;9.544;2024-02-14T04:21:43;3.40;99.90
1468;DHT22;727;48.892;9.544;2024-02-14T04:24:11;3.40;99.90
1468;DHT22;727;48.892;9.544;2024-02-14T04:26:37;3.50;99.90
1468;DHT22;727;48.892;9.544;2024-02-14T04:29:04;3.60;99.90
1468;DHT22;727;48.892;9.544;2024-02-14T04:31:31;3.60;99.90
1468;DHT22;727;48.892;9.544;2024-02-14T04:33:57;3.60;99.90
1468;DHT22;727;48.892;9.544;2024-02-14T04:36:24;3.60;99.90
1468;DHT22;727;48.892;9.544;2024-02-14T04:38:51;3.60;99.90
1468;DHT22;727;48.892;9.544;2024-02-14T04:41:19;3.70;99.90
1468;DHT22;727;48.892;9.544;2024-02-14T04:43:46;3.70;99.90
1468;DHT22;727;48.892;9.544;2024-02-14T04:46:13;3.80;99.90
1468;DHT22;727;48.892;9.544;2024-02-14T04:48:40;3.80;99.90
1468;DHT22;727;48.892;9.544;2024-02-14T04:51:07;3.80;99.90
1468;DHT22;727;48.892;9.544;2024-02-14T04:53:34;3.80;99.90
1468;DHT22;727;48.892;9.544;2024-02-14T04:56:01;3.80;99.90
1468;DHT22;727;48.892;9.544;2024-02-14T04:58:29;3.90;99.90
1468;DHT22;727;48.892;9.544;2024-02-14T05:00:55;3.90;99.90
1468;DHT22;727;48.892;9.544;2024-02-14T05:03:22;3.90;99.90
1468;DHT22;727;48.892;9.544;2024-02-14T05:05:49;3.90;99.90
1468;DHT22;727;48.892;9.544;2024-02-14T05:08:16;3.90;99.90
1468;DHT22;727;48.892;9.544;2024-02-14T05:10:43;3.90;99.90
1468;DHT22;727;48.892;9.544;2024-02-14T05:13:10;3.90;99.90
1468;DHT22;727;48.892;9.544;2024-02-14T05:15:38;4.00;99.90
1468;DHT22;727;48.892;9.544;2024-02-14T05:18:05;4.00;99.90
1468;DHT22;727;48.892;9.544;2024-02-14T05:20:32;4.00;99.90
1468;DHT22;727;48.892;9.544;2024-02-14T05:22:58;4.00;99.90
1468;DHT22;727;48.892;9.544;2024-02-14T05:25:25;4.00;99.90
1468;DHT22;727;48.892;9.544;2024-02-14T05:27:55;4.00;99.90
1468;DHT22;727;48.892;9.544;2024-02-14T05:30:21;4.10;99.90
1468;DHT22;727;48.892;9.544;2024-02-14T05:32:49;4.10;99.90
1468;DHT22;727;48.892;9.544;2024-02-14T05:35:18;4.10;99.90
1468;DHT22;727;48.892;9.544;2024-02-14T05:37:45;4.10;99.90
1468;DHT22;727;48.892;9.544;2024-02-14T05:40:15;4.20;99.90
1468;DHT22;727;48.892;9.544;2024-02-14T05:42:42;4.20;99.90
1468;DHT22;727;48.892;9.544;2024-02-14T05:45:09;4.20;99.90
1468;DHT22;727;48.892;9.544;2024-02-14T05:47:36;4.30;99.90
1468;DHT22;727;48.892;9.544;2024-02-14T05:50:05;4.30;99.90
1468;DHT22;727;48.892;9.544;2024-02-14T05:52:34;4.40;99.90
1468;DHT22;727;48.892;9.544;2024-02-14T05:55:01;4.40;99.90
1468;DHT22;727;48.892;9.544;2024-02-14T05:57:29;4.40;99.90
1468;DHT22;727;48.892;9.544;2024-02-14T05:59:55;4.40;99.90
1468;DHT22;727;48.892;9.544;2024-02-14T06:02:22;4.40;99.90
1468;DHT22;727;48.892;9.544;2024-02-14T06:04:49;4.40;99.90
1468;DHT22;727;48.892;9.544;2024-02-14T06:07:18;4.40;99.90
1468;DHT22;727;48.892;9.544;2024-02-14T06:09:44;4.50;99.90
1468;DHT22;727;48.892;9.544;2024-02-14T06:12:11;4.50;99.90
1468;DHT22;727;48.892;9.544;2024-02-14T06:14:38;4.50;99.90
1468;DHT22;727;48.892;9.544;2024-02-14T06:17:05;4.60;99.90
1468;DHT22;727;48.892;9.544;2024-02-14T06:19:31;4.60;99.90
1468;DHT22;727;48.892;9.544;2024-02-14T06:22:00;4.70;99.90
1468;DHT22;727;48.892;9.544;2024-02-14T06:24:28;4.70;99.90
1468;DHT22;727;48.892;9.544;2024-02-14T06:26:55;4.70;99.90
1468;DHT22;727;48.892;9.544;2024-02-14T06:29:21;4.80;99.90
1468;DHT22;727;48.892;9.544;2024-02-14T06:31:48;4.80;99.90
1468;DHT22;727;48.892;9.544;2024-02-14T06:34:15;4.80;99.90
1468;DHT22;727;48.892;9.544;2024-02-14T06:36:41;4.80;99.90
1468;DHT22;727;48.892;9.544;2024-02-14T06:39:08;4.80;99.90
1468;DHT22;727;48.892;9.544;2024-02-14T06:41:36;4.90;99.90
1468;DHT22;727;48.892;9.544;2024-02-14T06:44:03;4.90;99.90
1468;DHT22;727;48.892;9.544;2024-02-14T06:46:30;4.90;99.90
1468;DHT22;727;48.892;9.544;2024-02-14T06:48:57;4.80;99.90
1468;DHT22;727;48.892;9.544;2024-02-14T06:51:23;4.90;99.90
1468;DHT22;727;48.892;9.544;2024-02-14T06:53:50;4.90;99.90
1468;DHT22;727;48.892;9.544;2024-02-14T06:56:17;4.90;99.90
1468;DHT22;727;48.892;9.544;2024-02-14T06:58:45;4.90;99.90
1468;DHT22;727;48.892;9.544;2024-02-14T07:01:11;5.00;99.90
1468;DHT22;727;48.892;9.544;2024-02-14T07:03:40;5.00;99.90
1468;DHT22;727;48.892;9.544;2024-02-14T07:06:07;5.00;99.90
1468;DHT22;727;48.892;9.544;2024-02-14T07:08:34;5.00;99.90
1468;DHT22;727;48.892;9.544;2024-02-14T07:11:00;5.00;99.90
1468;DHT22;727;48.892;9.544;2024-02-14T07:13:27;5.00;99.90
1468;DHT22;727;48.892;9.544;2024-02-14T07:15:55;5.00;99.90
1468;DHT22;727;48.892;9.544;2024-02-14T07:18:22;5.10;99.90
1468;DHT22;727;48.892;9.544;2024-02-14T07:20:48;5.10;99.90
1468;DHT22;727;48.892;9.544;2024-02-14T07:23:16;5.10;99.90
1468;DHT22;727;48.892;9.544;2024-02-14T07:25:43;5.10;99.90
1468;DHT22;727;48.892;9.544;2024-02-14T07:28:10;5.10;99.90
1468;DHT22;727;48.892;9.544;2024-02-14T07:30:37;5.20;99.90
1468;DHT22;727;48.892;9.544;2024-02-14T07:33:05;5.20;99.90
1468;DHT22;727;48.892;9.544;2024-02-14T07:35:31;5.20;99.90
1468;DHT22;727;48.892;9.544;2024-02-14T07:37:58;5.20;99.90
1468;DHT22;727;48.892;9.544;2024-02-14T07:40:25;5.30;99.90
1468;DHT22;727;48.892;9.544;2024-02-14T07:42:52;5.30;99.90
1468;DHT22;727;48.892;9.544;2024-02-14T07:45:19;5.30;99.90
1468;DHT22;727;48.892;9.544;2024-02-14T07:47:46;5.40;99.90
1468;DHT22;727;48.892;9.544;2024-02-14T07:50:15;5.40;99.90
1468;DHT22;727;48.892;9.544;2024-02-14T07:52:42;5.40;99.90
1468;DHT22;727;48.892;9.544;2024-02-14T07:55:10;5.40;99.90
1468;DHT22;727;48.892;9.544;2024-02-14T07:57:38;5.50;99.90
1468;DHT22;727;48.892;9.544;2024-02-14T08:00:05;5.60;99.90
1468;DHT22;727;48.892;9.544;2024-02-14T08:02:33;5.70;99.90
1468;DHT22;727;48.892;9.544;2024-02-14T08:05:01;5.70;99.90
1468;DHT22;727;48.892;9.544;2024-02-14T08:07:31;5.80;99.90
1468;DHT22;727;48.892;9.544;2024-02-14T08:09:58;5.80;99.90
1468;DHT22;727;48.892;9.544;2024-02-14T08:12:24;5.90;99.90
1468;DHT22;727;48.892;9.544;2024-02-14T08:14:52;6.00;99.90
1468;DHT22;727;48.892;9.544;2024-02-14T08:17:18;6.10;99.90
1468;DHT22;727;48.892;9.544;2024-02-14T08:19:45;6.20;99.90
1468;DHT22;727;48.892;9.544;2024-02-14T08:22:11;6.40;99.90
1468;DHT22;727;48.892;9.544;2024-02-14T08:24:40;6.50;99.90
1468;DHT22;727;48.892;9.544;2024-02-14T08:27:06;6.60;99.90
1468;DHT22;727;48.892;9.544;2024-02-14T08:29:33;6.60;99.90
1468;DHT22;727;48.892;9.544;2024-02-14T08:32:00;6.70;99.90
1468;DHT22;727;48.892;9.544;2024-02-14T08:34:27;6.70;99.90
1468;DHT22;727;48.892;9.544;2024-02-14T08:36:54;6.80;99.90
1468;DHT22;727;48.892;9.544;2024-02-14T08:39:21;6.90;99.90
1468;DHT22;727;48.892;9.544;2024-02-14T08:41:49;7.00;99.90
1468;DHT22;727;48.892;9.544;2024-02-14T08:44:15;7.20;99.90
1468;DHT22;727;48.892;9.544;2024-02-14T08:46:43;7.40;99.90
1468;DHT22;727;48.892;9.544;2024-02-14T08:49:14;7.50;99.90
1468;DHT22;727;48.892;9.544;2024-02-14T08:51:41;7.60;99.90
1468;DHT22;727;48.892;9.544;2024-02-14T08:54:09;7.60;99.90
1468;DHT22;727;48.892;9.544;2024-02-14T08:56:36;7.60;99.90
1468;DHT22;727;48.892;9.544;2024-02-14T08:59:04;7.60;99.90
1468;DHT22;727;48.892;9.544;2024-02-14T09:01:32;7.70;99.90
1468;DHT22;727;48.892;9.544;2024-02-14T09:03:59;7.70;99.90
1468;DHT22;727;48.892;9.544;2024-02-14T09:06:26;7.70;99.90
1468;DHT22;727;48.892;9.544;2024-02-14T09:08:53;7.80;99.90
1468;DHT22;727;48.892;9.544;2024-02-14T09:11:20;7.90;99.90
1468;DHT22;727;48.892;9.544;2024-02-14T09:13:48;8.00;99.90
1468;DHT22;727;48.892;9.544;2024-02-14T09:16:20;8.10;99.90
1468;DHT22;727;48.892;9.544;2024-02-14T09:18:47;8.20;99.90
1468;DHT22;727;48.892;9.544;2024-02-14T09:21:14;8.30;99.90
1468;DHT22;727;48.892;9.544;2024-02-14T09:23:42;8.50;99.90
1468;DHT22;727;48.892;9.544;2024-02-14T09:26:10;8.60;99.90
1468;DHT22;727;48.892;9.544;2024-02-14T09:28:40;8.80;99.90
1468;DHT22;727;48.892;9.544;2024-02-14T09:31:05;8.90;99.90
1468;DHT22;727;48.892;9.544;2024-02-14T09:33:36;9.10;99.90
1468;DHT22;727;48.892;9.544;2024-02-14T09:36:03;9.40;99.90
1468;DHT22;727;48.892;9.544;2024-02-14T09:38:30;9.50;99.90
1468;DHT22;727;48.892;9.544;2024-02-14T09:41:01;9.70;99.90
1468;DHT22;727;48.892;9.544;2024-02-14T09:43:36;9.80;99.90
1468;DHT22;727;48.892;9.544;2024-02-14T09:46:04;9.80;99.90
1468;DHT22;727;48.892;9.544;2024-02-14T09:48:32;9.80;99.90
1468;DHT22;727;48.892;9.544;2024-02-14T09:51:02;9.80;99.90
1468;DHT22;727;48.892;9.544;2024-02-14T09:53:29;10.00;99.90
1468;DHT22;727;48.892;9.544;2024-02-14T09:55:57;10.20;99.90
1468;DHT22;727;48.892;9.544;2024-02-14T09:58:25;10.40;99.90
1468;DHT22;727;48.892;9.544;2024-02-14T10:00:52;10.70;99.90
1468;DHT22;727;48.892;9.544;2024-02-14T10:03:19;11.00;99.90
1468;DHT22;727;48.892;9.544;2024-02-14T10:05:46;11.30;99.90
1468;DHT22;727;48.892;9.544;2024-02-14T10:08:15;11.90;99.90
1468;DHT22;727;48.892;9.544;2024-02-14T10:10:42;13.00;99.40
1468;DHT22;727;48.892;9.544;2024-02-14T10:13:09;13.90;97.20
1468;DHT22;727;48.892;9.544;2024-02-14T10:15:36;14.70;95.40
1468;DHT22;727;48.892;9.544;2024-02-14T10:18:03;15.80;93.00
1468;DHT22;727;48.892;9.544;2024-02-14T10:20:29;17.20;89.70
1468;DHT22;727;48.892;9.544;2024-02-14T10:23:02;18.70;83.60
1468;DHT22;727;48.892;9.544;2024-02-14T10:25:31;20.30;77.70
1468;DHT22;727;48.892;9.544;2024-02-14T10:28:03;21.00;72.30
1468;DHT22;727;48.892;9.544;2024-02-14T10:30:33;21.50;69.30
1468;DHT22;727;48.892;9.544;2024-02-14T10:33:01;22.10;66.40
1468;DHT22;727;48.892;9.544;2024-02-14T10:35:30;21.60;65.40
1468;DHT22;727;48.892;9.544;2024-02-14T10:37:58;19.90;66.70
1468;DHT22;727;48.892;9.544;2024-02-14T10:40:27;18.50;70.70
1468;DHT22;727;48.892;9.544;2024-02-14T10:42:55;17.50;73.80
1468;DHT22;727;48.892;9.544;2024-02-14T10:45:24;16.70;76.90
1468;DHT22;727;48.892;9.544;2024-02-14T10:47:51;15.90;79.80
1468;DHT22;727;48.892;9.544;2024-02-14T10:50:21;15.60;81.70
1468;DHT22;727;48.892;9.544;2024-02-14T10:52:48;15.30;82.00
1468;DHT22;727;48.892;9.544;2024-02-14T10:55:16;15.10;83.30
1468;DHT22;727;48.892;9.544;2024-02-14T10:57:44;14.90;84.90
1468;DHT22;727;48.892;9.544;2024-02-14T11:00:15;14.70;86.50
1468;DHT22;727;48.892;9.544;2024-02-14T11:02:43;14.70;87.90
1468;DHT22;727;48.892;9.544;2024-02-14T11:05:14;14.70;88.50
1468;DHT22;727;48.892;9.544;2024-02-14T11:07:44;14.60;88.90
1468;DHT22;727;48.892;9.544;2024-02-14T11:10:14;14.50;89.40
1468;DHT22;727;48.892;9.544;2024-02-14T11:12:41;14.50;90.10
1468;DHT22;727;48.892;9.544;2024-02-14T11:15:15;14.80;90.00
1468;DHT22;727;48.892;9.544;2024-02-14T11:17:42;15.30;89.60
1468;DHT22;727;48.892;9.544;2024-02-14T11:20:17;16.20;87.70
1468;DHT22;727;48.892;9.544;2024-02-14T11:22:52;15.90;87.40
1468;DHT22;727;48.892;9.544;2024-02-14T11:25:22;17.30;85.60
1468;DHT22;727;48.892;9.544;2024-02-14T11:27:50;18.40;81.30
1468;DHT22;727;48.892;9.544;2024-02-14T11:30:29;17.80;80.70
1468;DHT22;727;48.892;9.544;2024-02-14T11:33:07;16.80;83.90
1468;DHT22;727;48.892;9.544;2024-02-14T11:35:34;16.00;86.50
1468;DHT22;727;48.892;9.544;2024-02-14T11:38:01;15.40;89.10
1468;DHT22;727;48.892;9.544;2024-02-14T11:40:29;14.90;90.20
1468;DHT22;727;48.892;9.544;2024-02-14T11:42:56;14.50;90.80
1468;DHT22;727;48.892;9.544;2024-02-14T11:45:23;14.30;91.30
1468;DHT22;727;48.892;9.544;2024-02-14T11:47:51;14.00;91.80
1468;DHT22;727;48.892;9.544;2024-02-14T11:50:17;13.80;92.00
1468;DHT22;727;48.892;9.544;2024-02-14T11:52:44;13.70;92.50
1468;DHT22;727;48.892;9.544;2024-02-14T11:55:11;13.70;92.90
1468;DHT22;727;48.892;9.544;2024-02-14T11:57:39;13.60;93.10
1468;DHT22;727;48.892;9.544;2024-02-14T12:00:07;13.50;93.30
1468;DHT22;727;48.892;9.544;2024-02-14T12:02:34;13.50;93.50
1468;DHT22;727;48.892;9.544;2024-02-14T12:05:03;13.50;93.60
1468;DHT22;727;48.892;9.544;2024-02-14T12:07:31;13.40;93.80
1468;DHT22;727;48.892;9.544;2024-02-14T12:09:58;13.40;94.20
1468;DHT22;727;48.892;9.544;2024-02-14T12:12:24;13.30;94.40
1468;DHT22;727;48.892;9.544;2024-02-14T12:14:52;13.20;94.60
1468;DHT22;727;48.892;9.544;2024-02-14T12:17:18;13.20;95.00
1468;DHT22;727;48.892;9.544;2024-02-14T12:19:46;13.20;95.10
1468;DHT22;727;48.892;9.544;2024-02-14T12:22:15;13.20;95.20
1468;DHT22;727;48.892;9.544;2024-02-14T12:24:45;13.20;95.50
1468;DHT22;727;48.892;9.544;2024-02-14T12:27:12;13.20;95.90
1468;DHT22;727;48.892;9.544;2024-02-14T12:29:39;13.20;96.10
1468;DHT22;727;48.892;9.544;2024-02-14T12:32:06;13.10;96.40
1468;DHT22;727;48.892;9.544;2024-02-14T12:34:33;13.20;96.50
1468;DHT22;727;48.892;9.544;2024-02-14T12:37:01;13.10;96.60
1468;DHT22;727;48.892;9.544;2024-02-14T12:39:30;13.10;96.80
1468;DHT22;727;48.892;9.544;2024-02-14T12:41:56;13.10;97.00
1468;DHT22;727;48.892;9.544;2024-02-14T12:44:23;13.10;97.10
1468;DHT22;727;48.892;9.544;2024-02-14T12:46:50;13.00;97.40
1468;DHT22;727;48.892;9.544;2024-02-14T12:49:16;13.10;97.50
1468;DHT22;727;48.892;9.544;2024-02-14T12:51:44;13.10;97.60
1468;DHT22;727;48.892;9.544;2024-02-14T12:54:10;13.10;97.40
1468;DHT22;727;48.892;9.544;2024-02-14T12:56:41;13.40;97.00
1468;DHT22;727;48.892;9.544;2024-02-14T12:59:08;13.70;96.70
1468;DHT22;727;48.892;9.544;2024-02-14T13:01:37;14.00;96.00
1468;DHT22;727;48.892;9.544;2024-02-14T13:04:06;14.10;96.10
1468;DHT22;727;48.892;9.544;2024-02-14T13:06:35;14.20;95.90
1468;DHT22;727;48.892;9.544;2024-02-14T13:09:03;14.30;95.40
1468;DHT22;727;48.892;9.544;2024-02-14T13:11:31;14.40;95.10
1468;DHT22;727;48.892;9.544;2024-02-14T13:13:59;14.50;94.80
1468;DHT22;727;48.892;9.544;2024-02-14T13:16:25;14.60;94.90
1468;DHT22;727;48.892;9.544;2024-02-14T13:18:52;14.50;94.90
1468;DHT22;727;48.892;9.544;2024-02-14T13:21:19;14.50;95.10
1468;DHT22;727;48.892;9.544;2024-02-14T13:23:45;14.30;95.00
1468;DHT22;727;48.892;9.544;2024-02-14T13:26:13;14.30;95.20
1468;DHT22;727;48.892;9.544;2024-02-14T13:28:39;14.30;95.10
1468;DHT22;727;48.892;9.544;2024-02-14T13:31:07;14.40;95.20
1468;DHT22;727;48.892;9.544;2024-02-14T13:33:34;14.50;95.20
1468;DHT22;727;48.892;9.544;2024-02-14T13:36:01;14.50;95.10
1468;DHT22;727;48.892;9.544;2024-02-14T13:38:29;14.40;95.00
1468;DHT22;727;48.892;9.544;2024-02-14T13:40:55;14.40;95.20
1468;DHT22;727;48.892;9.544;2024-02-14T13:43:22;14.30;95.50
1468;DHT22;727;48.892;9.544;2024-02-14T13:45:49;14.20;95.70
1468;DHT22;727;48.892;9.544;2024-02-14T13:48:17;14.30;95.70
1468;DHT22;727;48.892;9.544;2024-02-14T13:50:43;14.50;96.00
1468;DHT22;727;48.892;9.544;2024-02-14T13:53:10;14.80;95.50
1468;DHT22;727;48.892;9.544;2024-02-14T13:55:37;15.40;94.90
1468;DHT22;727;48.892;9.544;2024-02-14T13:58:04;16.50;93.30
1468;DHT22;727;48.892;9.544;2024-02-14T14:00:31;17.00;92.00
1468;DHT22;727;48.892;9.544;2024-02-14T14:02:58;17.30;91.10
1468;DHT22;727;48.892;9.544;2024-02-14T14:05:26;17.50;90.90
1468;DHT22;727;48.892;9.544;2024-02-14T14:07:53;17.20;90.50
1468;DHT22;727;48.892;9.544;2024-02-14T14:10:20;17.00;90.90
1468;DHT22;727;48.892;9.544;2024-02-14T14:12:46;16.60;90.90
1468;DHT22;727;48.892;9.544;2024-02-14T14:15:13;16.40;91.50
1468;DHT22;727;48.892;9.544;2024-02-14T14:17:40;16.00;91.80
1468;DHT22;727;48.892;9.544;2024-02-14T14:20:07;15.80;92.40
1468;DHT22;727;48.892;9.544;2024-02-14T14:22:35;15.60;92.80
1468;DHT22;727;48.892;9.544;2024-02-14T14:25:03;15.30;93.00
1468;DHT22;727;48.892;9.544;2024-02-14T14:27:31;15.20;93.40
1468;DHT22;727;48.892;9.544;2024-02-14T14:29:58;15.10;94.00
1468;DHT22;727;48.892;9.544;2024-02-14T14:32:25;15.20;94.20
1468;DHT22;727;48.892;9.544;2024-02-14T14:34:51;15.10;93.80
1468;DHT22;727;48.892;9.544;2024-02-14T14:37:18;15.20;94.00
1468;DHT22;727;48.892;9.544;2024-02-14T14:39:47;15.20;93.90
1468;DHT22;727;48.892;9.544;2024-02-14T14:42:13;15.30;94.10
1468;DHT22;727;48.892;9.544;2024-02-14T14:44:40;15.20;94.20
1468;DHT22;727;48.892;9.544;2024-02-14T14:47:07;15.10;94.30
1468;DHT22;727;48.892;9.544;2024-02-14T14:49:34;15.10;94.20
1468;DHT22;727;48.892;9.544;2024-02-14T14:52:00;14.90;94.50
1468;DHT22;727;48.892;9.544;2024-02-14T14:54:29;14.80;94.90
1468;DHT22;727;48.892;9.544;2024-02-14T14:56:57;14.70;95.10
1468;DHT22;727;48.892;9.544;2024-02-14T14:59:24;14.60;95.30
1468;DHT22;727;48.892;9.544;2024-02-14T15:01:51;14.50;95.50
1468;DHT22;727;48.892;9.544;2024-02-14T15:04:19;14.40;96.00
1468;DHT22;727;48.892;9.544;2024-02-14T15:06:46;14.30;96.10
1468;DHT22;727;48.892;9.544;2024-02-14T15:09:13;14.30;96.10
1468;DHT22;727;48.892;9.544;2024-02-14T15:11:39;14.20;96.40
1468;DHT22;727;48.892;9.544;2024-02-14T15:14:07;14.20;96.70
1468;DHT22;727;48.892;9.544;2024-02-14T15:16:34;14.10;96.50
1468;DHT22;727;48.892;9.544;2024-02-14T15:19:01;14.00;96.60
1468;DHT22;727;48.892;9.544;2024-02-14T15:21:27;14.00;97.20
1468;DHT22;727;48.892;9.544;2024-02-14T15:23:54;14.00;97.60
1468;DHT22;727;48.892;9.544;2024-02-14T15:26:21;13.90;97.70
1468;DHT22;727;48.892;9.544;2024-02-14T15:28:50;13.90;97.70
1468;DHT22;727;48.892;9.544;2024-02-14T15:31:24;14.00;97.60
1468;DHT22;727;48.892;9.544;2024-02-14T15:34:08;13.90;97.70
1468;DHT22;727;48.892;9.544;2024-02-14T15:36:36;14.00;97.70
1468;DHT22;727;48.892;9.544;2024-02-14T15:39:02;13.90;98.00
1468;DHT22;727;48.892;9.544;2024-02-14T15:41:29;13.80;98.10
1468;DHT22;727;48.892;9.544;2024-02-14T15:43:56;13.70;98.50
1468;DHT22;727;48.892;9.544;2024-02-14T15:46:24;13.70;98.90
1468;DHT22;727;48.892;9.544;2024-02-14T15:48:51;13.60;99.10
1468;DHT22;727;48.892;9.544;2024-02-14T15:51:19;13.50;99.30
1468;DHT22;727;48.892;9.544;2024-02-14T15:53:48;13.50;99.70
1468;DHT22;727;48.892;9.544;2024-02-14T15:56:15;13.40;99.90
1468;DHT22;727;48.892;9.544;2024-02-14T15:58:43;13.30;99.90
1468;DHT22;727;48.892;9.544;2024-02-14T16:01:11;13.20;99.90
1468;DHT22;727;48.892;9.544;2024-02-14T16:03:39;13.20;99.90
1468;DHT22;727;48.892;9.544;2024-02-14T16:06:06;13.10;99.90
1468;DHT22;727;48.892;9.544;2024-02-14T16:08:34;13.00;99.90
1468;DHT22;727;48.892;9.544;2024-02-14T16:11:01;12.90;99.90
1468;DHT22;727;48.892;9.544;2024-02-14T16:13:28;12.90;99.90
1468;DHT22;727;48.892;9.544;2024-02-14T16:15:55;12.80;99.90
1468;DHT22;727;48.892;9.544;2024-02-14T16:18:22;12.70;99.90
1468;DHT22;727;48.892;9.544;2024-02-14T16:20:51;12.70;99.90
1468;DHT22;727;48.892;9.544;2024-02-14T16:23:18;12.70;99.90
1468;DHT22;727;48.892;9.544;2024-02-14T16:25:45;12.60;99.90
1468;DHT22;727;48.892;9.544;2024-02-14T16:28:13;12.50;99.90